Time;durP1;ratioP1;P1;durP2;ratioP2;P2;SDS_P1;SDS_P2;PMS_P1;PMS_P2;Temp;Humidity;BMP_temperature;BMP_pressure;BME280_temperature;BME280_humidity;BME280_pressure;Samples;Min_cycle;Max_cycle;Signal;HPM_P1;HPM_P2
2022/06/01 00:01:54;;;;;;;;;;;;;;;;;;5063911;28;20070;-71
2022/06/01 00:04:21;;;;;;;23.35;5.60;;;;;;;;;;5051216;28;20544;-71
2022/06/01 00:06:47;;;;;;;18.83;5.30;;;;;;;;;;5048187;28;20032;-73
2022/06/01 00:09:13;;;;;;;22.00;4.97;;;;;;;;;;5052962;28;20671;-70
2022/06/01 00:11:39;;;;;;;;;;;;;;;;;;5062110;28;20486;-71
2022/06/01 00:14:06;;;;;;;20.30;4.78;;;;;;;;;;5046647;28;19923;-71
2022/06/01 00:16:33;;;;;;;17.67;4.32;;;;;;;;;;5040507;28;20544;-73
2022/06/01 00:18:59;;;;;;;21.52;4.90;;;;;;;;;;5040616;28;20367;-71
2022/06/01 00:21:25;;;;;;;19.80;4.80;;;;;;;;;;5058917;28;20027;-72
2022/06/01 00:23:51;;;;;;;20.45;5.07;;;;;;;;;;5060251;28;20028;-70
2022/06/01 00:26:17;;;;;;;19.75;5.15;;;;;;;;;;5057976;28;20374;-71
2022/06/01 00:28:44;;;;;;;23.38;5.13;;;;;;;;;;5065381;28;20592;-72
2022/06/01 00:31:13;;;;;;;;;;;;;;;;;;5062919;28;20051;-71
2022/06/01 00:33:39;;;;;;;19.13;4.72;;;;;;;;;;5058558;28;19990;-71
2022/06/01 00:36:07;;;;;;;25.55;4.72;;;;;;;;;;5045165;28;20105;-72
2022/06/01 00:38:34;;;;;;;20.25;5.13;;;;;;;;;;5063057;28;20130;-72
2022/06/01 00:41:00;;;;;;;20.52;4.95;;;;;;;;;;5064912;28;20020;-72
2022/06/01 00:43:37;;;;;;;20.88;4.97;;;;;;;;;;5059090;28;20115;-72
2022/06/01 00:46:03;;;;;;;20.50;4.95;;;;;;;;;;5063314;28;20043;-71
2022/06/01 00:48:32;;;;;;;23.60;5.05;;;;;;;;;;5058396;28;22101;-72
2022/06/01 00:50:59;;;;;;;19.00;4.75;;;;;;;;;;5060290;28;20462;-71
2022/06/01 00:53:27;;;;;;;23.50;4.85;;;;;;;;;;5055491;28;20442;-71
2022/06/01 00:56:02;;;;;;;20.58;4.93;;;;;;;;;;5046889;28;20032;-71
2022/06/01 00:58:31;;;;;;;18.95;4.32;;;;;;;;;;5041750;28;20032;-71
2022/06/01 01:00:58;;;;;;;18.77;4.53;;;;;;;;;;5044117;28;20355;-71
2022/06/01 01:03:25;;;;;;;17.85;4.45;;;;;;;;;;5056500;28;20031;-71
2022/06/01 01:05:55;;;;;;;19.98;4.50;;;;;;;;;;5058486;28;20051;-71
2022/06/01 01:08:21;;;;;;;19.67;4.80;;;;;;;;;;5055252;28;20622;-71
2022/06/01 01:10:47;;;;;;;;;;;;;;;;;;5060853;28;20031;-71
2022/06/01 01:13:14;;;;;;;15.98;4.07;;;;;;;;;;5060395;28;20667;-71
2022/06/01 01:15:58;;;;;;;20.83;4.55;;;;;;;;;;5060898;28;20036;-71
2022/06/01 01:18:30;;;;;;;17.58;4.65;;;;;;;;;;5059195;28;20039;-72
2022/06/01 01:21:01;;;;;;;19.88;5.07;;;;;;;;;;5064541;28;20091;-71
2022/06/01 01:23:33;;;;;;;18.67;4.72;;;;;;;;;;5062011;28;20035;-71
2022/06/01 01:26:00;;;;;;;23.27;4.95;;;;;;;;;;5060418;28;20144;-71
2022/06/01 01:28:26;;;;;;;20.00;4.47;;;;;;;;;;5059767;28;20036;-71
2022/06/01 01:30:55;;;;;;;18.98;4.63;;;;;;;;;;5045300;28;20551;-71
2022/06/01 01:33:23;;;;;;;18.60;4.97;;;;;;;;;;5054651;28;20124;-71
2022/06/01 01:35:51;;;;;;;19.30;5.20;;;;;;;;;;5021450;28;20574;-71
2022/06/01 01:38:23;;;;;;;20.67;5.18;;;;;;;;;;5033025;28;20028;-71
2022/06/01 01:41:05;;;;;;;18.75;4.55;;;;;;;;;;5044626;28;20407;-71
2022/06/01 01:43:33;;;;;;;19.55;5.05;;;;;;;;;;5040283;28;20025;-71
2022/06/01 01:45:59;;;;;;;18.52;5.35;;;;;;;;;;5041300;28;20170;-71
2022/06/01 01:48:25;;;;;;;;;;;;;;;;;;5014673;28;20536;-71
2022/06/01 01:50:51;;;;;;;17.02;4.55;;;;;;;;;;5026171;28;20415;-70
2022/06/01 01:53:17;;;;;;;;;;;;;;;;;;5041014;28;20039;-71
2022/06/01 01:56:04;;;;;;;18.58;4.72;;;;;;;;;;5042829;28;20445;-71
2022/06/01 01:58:50;;;;;;;20.40;4.60;;;;;;;;;;5039065;28;21353;-71
2022/06/01 02:01:20;;;;;;;17.77;4.60;;;;;;;;;;5037780;28;20577;-71
2022/06/01 02:03:53;;;;;;;17.88;4.43;;;;;;;;;;5039405;28;20586;-71
2022/06/01 02:06:23;;;;;;;19.80;4.50;;;;;;;;;;5037411;28;21810;-71
2022/06/01 02:08:49;;;;;;;15.65;4.53;;;;;;;;;;5040937;28;20032;-73
2022/06/01 02:14:06;;;;;;;18.17;4.38;;;;;;;;;;5040804;28;20539;-71
2022/06/01 02:16:35;;;;;;;18.13;4.43;;;;;;;;;;5020468;28;20033;-70
2022/06/01 02:19:02;;;;;;;18.83;5.10;;;;;;;;;;5041390;28;20129;-72
2022/06/01 02:21:29;;;;;;;17.15;4.75;;;;;;;;;;5024440;28;20950;-73
2022/06/01 02:23:56;;;;;;;21.60;5.47;;;;;;;;;;5042379;28;20158;-72
2022/06/01 02:26:22;;;;;;;19.42;5.25;;;;;;;;;;5039760;28;20748;-72
2022/06/01 02:28:50;;;;;;;17.23;4.95;;;;;;;;;;5023257;28;20150;-73
2022/06/01 02:31:18;;;;;;;19.70;4.75;;;;;;;;;;5038361;28;20033;-71
2022/06/01 02:33:45;;;;;;;23.08;4.78;;;;;;;;;;5045538;28;20230;-70
2022/06/01 02:36:14;;;;;;;21.92;5.03;;;;;;;;;;5041384;28;20036;-71
2022/06/01 02:38:44;;;;;;;20.02;4.90;;;;;;;;;;5060802;28;20024;-71
2022/06/01 02:42:25;;;;;;;19.70;5.00;;;;;;;;;;5043737;28;20357;-72
2022/06/01 02:43:56;;;;;;;20.10;5.00;;;;;;;;;;5066034;28;20166;-71
2022/06/01 02:46:23;;;;;;;18.52;4.72;;;;;;;;;;5038165;28;20027;-71
2022/06/01 02:48:50;;;;;;;18.55;4.22;;;;;;;;;;5045002;28;20040;-71
2022/06/01 02:51:18;;;;;;;17.92;4.75;;;;;;;;;;5044754;28;20032;-70
2022/06/01 02:53:45;;;;;;;21.10;4.82;;;;;;;;;;5047341;28;20032;-73
2022/06/01 02:56:11;;;;;;;14.70;4.72;;;;;;;;;;5057752;28;20461;-72
2022/06/01 02:58:38;;;;;;;19.73;4.85;;;;;;;;;;5064293;28;20424;-73
2022/06/01 03:01:04;;;;;;;19.17;4.32;;;;;;;;;;5063072;28;20840;-72
2022/06/01 03:03:31;;;;;;;17.27;4.43;;;;;;;;;;5042206;28;20566;-73
2022/06/01 03:05:58;;;;;;;17.52;4.40;;;;;;;;;;5046775;28;20070;-72
2022/06/01 03:08:25;;;;;;;18.38;4.78;;;;;;;;;;5057094;28;20032;-72
2022/06/01 03:10:51;;;;;;;20.63;5.22;;;;;;;;;;5038398;28;20031;-72
2022/06/01 03:13:18;;;;;;;18.20;4.88;;;;;;;;;;5057772;28;20032;-72
2022/06/01 03:15:44;;;;;;;15.75;4.60;;;;;;;;;;5062575;28;20032;-72
2022/06/01 03:18:10;;;;;;;;;;;;;;;;;;5043016;28;20028;-72
2022/06/01 03:20:38;;;;;;;18.10;5.05;;;;;;;;;;5063044;28;20433;-72
2022/06/01 03:23:05;;;;;;;18.80;4.28;;;;;;;;;;5059868;28;20032;-72
2022/06/01 03:25:31;;;;;;;15.93;4.53;;;;;;;;;;5042428;28;20028;-72
2022/06/01 03:27:59;;;;;;;18.13;4.65;;;;;;;;;;5042444;28;20052;-72
2022/06/01 03:30:26;;;;;;;16.75;4.95;;;;;;;;;;5056698;28;20028;-72
2022/06/01 03:32:52;;;;;;;19.92;6.10;;;;;;;;;;5050414;28;20374;-72
2022/06/01 03:35:20;;;;;;;24.10;5.72;;;;;;;;;;5059465;28;20370;-71
2022/06/01 03:37:47;;;;;;;21.35;5.18;;;;;;;;;;5047162;28;20069;-71
2022/06/01 03:40:14;;;;;;;15.95;4.65;;;;;;;;;;5063350;28;20827;-73
2022/06/01 03:42:40;;;;;;;18.30;4.80;;;;;;;;;;5064566;28;20089;-70
2022/06/01 03:47:51;;;;;;;17.92;4.65;;;;;;;;;;5057658;28;20584;-71
2022/06/01 03:50:18;;;;;;;18.42;5.07;;;;;;;;;;5053999;28;20264;-70
2022/06/01 03:52:45;;;;;;;22.02;5.32;;;;;;;;;;5048325;28;20027;-71
2022/06/01 03:55:11;;;;;;;22.98;5.30;;;;;;;;;;5051761;28;20592;-71
2022/06/01 03:57:37;;;;;;;21.85;5.40;;;;;;;;;;5062286;28;20024;-71
2022/06/01 04:00:07;;;;;;;19.85;5.22;;;;;;;;;;5064085;28;20066;-70
2022/06/01 04:02:34;;;;;;;19.42;5.15;;;;;;;;;;5043065;28;20421;-71
2022/06/01 04:05:00;;;;;;;19.83;5.60;;;;;;;;;;5063682;28;20028;-71
2022/06/01 04:07:26;;;;;;;;;;;;;;;;;;5058401;28;20441;-70
2022/06/01 04:09:52;;;;;;;21.33;5.32;;;;;;;;;;5062535;28;19912;-70
2022/06/01 04:12:19;;;;;;;21.20;5.65;;;;;;;;;;5060902;28;20446;-71
2022/06/01 04:14:45;;;;;;;19.95;5.30;;;;;;;;;;5065806;28;20065;-71
2022/06/01 04:17:11;;;;;;;;;;;;;;;;;;5058135;28;20031;-70
2022/06/01 04:19:37;;;;;;;15.25;5.10;;;;;;;;;;5064849;28;19912;-70
2022/06/01 04:22:03;;;;;;;20.02;5.25;;;;;;;;;;5066342;28;20059;-71
2022/06/01 04:24:32;;;;;;;13.77;4.82;;;;;;;;;;5039471;28;21601;-70
2022/06/01 04:26:59;;;;;;;15.98;4.57;;;;;;;;;;5065025;28;20046;-72
2022/06/01 04:29:25;;;;;;;14.77;4.32;;;;;;;;;;5062064;28;20504;-73
2022/06/01 04:32:01;;;;;;;15.25;4.55;;;;;;;;;;5063192;28;20036;-72
2022/06/01 04:34:27;;;;;;;15.45;4.45;;;;;;;;;;5062786;28;20055;-70
2022/06/01 04:36:54;;;;;;;14.27;4.63;;;;;;;;;;5046408;28;20028;-71
2022/06/01 04:39:21;;;;;;;13.95;4.82;;;;;;;;;;5057365;28;20032;-71
2022/06/01 04:41:47;;;;;;;17.05;5.00;;;;;;;;;;5060486;28;20588;-70
2022/06/01 04:44:13;;;;;;;;;;;;;;;;;;5046353;28;20109;-71
2022/06/01 04:46:39;;;;;;;18.00;5.18;;;;;;;;;;5061614;28;20661;-71
2022/06/01 04:49:07;;;;;;;;;;;;;;;;;;5065125;28;20097;-71
2022/06/01 04:51:34;;;;;;;17.13;4.65;;;;;;;;;;5055441;28;20041;-72
2022/06/01 04:54:00;;;;;;;16.98;5.40;;;;;;;;;;5051608;28;20032;-71
2022/06/01 04:56:26;;;;;;;;;;;;;;;;;;5052205;28;20130;-70
2022/06/01 04:58:52;;;;;;;20.10;5.63;;;;;;;;;;5045259;28;19919;-71
2022/06/01 05:01:18;;;;;;;;;;;;;;;;;;5060845;28;20039;-70
2022/06/01 05:03:44;;;;;;;17.65;5.70;;;;;;;;;;5058865;28;20202;-70
2022/06/01 05:06:10;;;;;;;;;;;;;;;;;;5057373;28;20032;-70
2022/06/01 05:08:36;;;;;;;21.00;6.13;;;;;;;;;;5061985;28;19962;-70
2022/06/01 05:11:03;;;;;;;21.83;6.60;;;;;;;;;;5066169;28;20558;-72
2022/06/01 05:13:29;;;;;;;22.67;6.82;;;;;;;;;;5042573;28;20031;-72
2022/06/01 05:15:57;;;;;;;19.25;6.15;;;;;;;;;;5043666;28;20040;-72
2022/06/01 05:18:23;;;;;;;19.50;6.35;;;;;;;;;;5058309;28;20032;-72
2022/06/01 05:20:50;;;;;;;23.27;6.35;;;;;;;;;;5060663;28;20016;-72
2022/06/01 05:23:17;;;;;;;18.25;6.07;;;;;;;;;;5059159;28;20444;-72
2022/06/01 05:25:44;;;;;;;19.52;5.75;;;;;;;;;;5042883;28;20027;-72
2022/06/01 05:28:11;;;;;;;18.00;5.75;;;;;;;;;;5060306;28;20343;-72
2022/06/01 05:30:37;;;;;;;18.13;5.70;;;;;;;;;;5046164;28;20553;-72
2022/06/01 05:33:03;;;;;;;15.35;5.00;;;;;;;;;;5064995;28;20564;-72
2022/06/01 05:35:29;;;;;;;;;;;;;;;;;;5059229;28;21023;-72
2022/06/01 05:37:56;;;;;;;20.23;6.00;;;;;;;;;;5056421;28;19966;-72
2022/06/01 05:40:22;;;;;;;19.83;5.78;;;;;;;;;;5041846;28;20020;-72
2022/06/01 05:42:49;;;;;;;17.63;6.15;;;;;;;;;;5051205;28;20038;-72
2022/06/01 05:45:15;;;;;;;;;;;;;;;;;;5044616;28;20507;-72
2022/06/01 05:47:41;;;;;;;21.35;6.10;;;;;;;;;;5062554;28;19916;-72
2022/06/01 05:50:07;;;;;;;;;;;;;;;;;;5065610;28;20578;-72
2022/06/01 05:52:33;;;;;;;16.38;5.28;;;;;;;;;;5038457;28;19916;-72
2022/06/01 05:55:01;;;;;;;18.20;5.88;;;;;;;;;;5061880;28;20457;-72
2022/06/01 05:57:28;;;;;;;21.35;6.00;;;;;;;;;;5046479;28;20062;-72
2022/06/01 05:59:54;;;;;;;21.70;6.25;;;;;;;;;;5066863;28;20017;-72
2022/06/01 06:02:20;;;;;;;;;;;;;;;;;;5044849;28;20039;-72
2022/06/01 06:04:46;;;;;;;18.70;5.13;;;;;;;;;;5073478;28;19908;-72
2022/06/01 06:07:12;;;;;;;;;;;;;;;;;;5037540;28;20028;-72
2022/06/01 06:09:38;;;;;;;20.52;5.65;;;;;;;;;;5046618;28;19950;-72
2022/06/01 06:12:04;;;;;;;;;;;;;;;;;;5047375;28;20020;-72
2022/06/01 06:14:30;;;;;;;16.45;5.38;;;;;;;;;;5063843;28;19920;-72
2022/06/01 06:16:56;;;;;;;21.88;5.65;;;;;;;;;;5064689;28;20024;-72
2022/06/01 06:19:29;;;;;;;;;;;;;;;;;;5065232;28;20106;-72
2022/06/01 06:21:55;;;;;;;17.20;5.60;;;;;;;;;;5052579;28;19919;-72
2022/06/01 06:24:22;;;;;;;19.05;5.80;;;;;;;;;;5058158;28;20048;-72
2022/06/01 06:26:48;;;;;;;15.82;4.90;;;;;;;;;;5063938;28;20040;-72
2022/06/01 06:29:16;;;;;;;18.80;5.10;;;;;;;;;;5057972;28;20047;-72
2022/06/01 06:31:43;;;;;;;20.25;5.57;;;;;;;;;;5072258;28;20024;-72
2022/06/01 06:34:11;;;;;;;17.85;5.00;;;;;;;;;;5046677;28;20044;-72
2022/06/01 06:36:38;;;;;;;20.23;5.40;;;;;;;;;;5062223;28;20044;-72
2022/06/01 06:39:07;;;;;;;21.17;5.13;;;;;;;;;;5047681;28;20033;-72
2022/06/01 06:41:37;;;;;;;18.77;5.57;;;;;;;;;;5059385;28;20390;-72
2022/06/01 06:44:04;;;;;;;14.95;5.60;;;;;;;;;;5057573;28;20659;-72
2022/06/01 06:46:32;;;;;;;23.83;5.95;;;;;;;;;;5037479;28;20752;-72
2022/06/01 06:49:00;;;;;;;17.60;6.25;;;;;;;;;;5018318;28;20048;-72
2022/06/01 06:51:28;;;;;;;24.20;5.80;;;;;;;;;;5017274;28;20052;-72
2022/06/01 06:53:56;;;;;;;19.35;6.35;;;;;;;;;;5022151;28;20047;-73
2022/06/01 06:56:27;;;;;;;20.23;5.63;;;;;;;;;;5015980;28;20257;-71
2022/06/01 06:58:55;;;;;;;16.33;5.78;;;;;;;;;;5006689;28;20037;-71
2022/06/01 07:01:22;;;;;;;17.13;5.40;;;;;;;;;;5008819;28;20130;-73
2022/06/01 07:03:49;;;;;;;19.83;6.47;;;;;;;;;;5021976;28;20121;-70
2022/06/01 07:06:18;;;;;;;16.80;5.90;;;;;;;;;;5000731;28;20037;-70
2022/06/01 07:08:52;;;;;;;20.38;7.47;;;;;;;;;;5006633;28;20131;-71
2022/06/01 07:11:20;;;;;;;24.05;6.20;;;;;;;;;;4987014;28;20067;-73
2022/06/01 07:13:51;;;;;;;22.00;7.05;;;;;;;;;;5021081;28;20059;-73
2022/06/01 07:16:19;;;;;;;23.38;5.97;;;;;;;;;;4979373;28;20049;-71
2022/06/01 07:18:49;;;;;;;21.17;6.00;;;;;;;;;;5008579;28;20036;-73
2022/06/01 07:21:18;;;;;;;20.83;6.00;;;;;;;;;;5026507;28;20532;-71
2022/06/01 07:23:46;;;;;;;21.25;5.68;;;;;;;;;;5027075;28;20041;-71
2022/06/01 07:26:17;;;;;;;19.88;6.25;;;;;;;;;;5000868;28;20041;-71
2022/06/01 07:28:43;;;;;;;19.33;5.20;;;;;;;;;;5007822;28;20040;-71
2022/06/01 07:31:11;;;;;;;17.90;5.75;;;;;;;;;;5028777;28;20115;-70
2022/06/01 07:33:41;;;;;;;18.95;5.20;;;;;;;;;;5024520;28;20520;-70
2022/06/01 07:36:11;;;;;;;15.80;4.90;;;;;;;;;;5024727;28;20483;-70
2022/06/01 07:44:22;;;;;;;14.48;3.85;;;;;;;;;;5054837;28;20595;-73
2022/06/01 07:46:50;;;;;;;17.42;4.45;;;;;;;;;;5049058;28;20034;-72
2022/06/01 07:49:19;;;;;;;15.65;4.00;;;;;;;;;;5021745;28;20466;-72
2022/06/01 07:51:51;;;;;;;14.18;3.67;;;;;;;;;;5039659;28;20034;-72
2022/06/01 07:54:20;;;;;;;19.58;4.30;;;;;;;;;;5053266;28;20044;-71
2022/06/01 07:56:47;;;;;;;17.55;4.38;;;;;;;;;;5059610;28;20443;-71
2022/06/01 07:59:13;;;;;;;13.65;3.67;;;;;;;;;;5037666;28;20395;-71
2022/06/01 08:01:42;;;;;;;15.43;3.50;;;;;;;;;;5058204;28;20624;-72
2022/06/01 08:04:10;;;;;;;13.77;3.97;;;;;;;;;;5035350;28;20040;-72
2022/06/01 08:06:38;;;;;;;14.30;3.85;;;;;;;;;;5061871;28;20075;-72
2022/06/01 08:09:07;;;;;;;13.25;3.30;;;;;;;;;;5055973;28;20506;-73
2022/06/01 08:14:18;;;;;;;13.52;3.40;;;;;;;;;;5056547;28;20075;-70
2022/06/01 08:16:48;;;;;;;11.77;3.22;;;;;;;;;;5059964;28;20039;-71
2022/06/01 08:19:15;;;;;;;12.07;3.00;;;;;;;;;;5057018;28;20031;-71
2022/06/01 08:21:45;;;;;;;12.07;3.28;;;;;;;;;;5059326;28;20024;-72
2022/06/01 08:24:13;;;;;;;12.32;3.10;;;;;;;;;;5039699;28;20036;-72
2022/06/01 08:26:42;;;;;;;12.45;3.15;;;;;;;;;;5035887;28;20114;-71
2022/06/01 08:29:08;;;;;;;12.90;2.85;;;;;;;;;;5055777;28;20450;-73
2022/06/01 08:31:38;;;;;;;13.25;2.75;;;;;;;;;;5060053;28;20044;-72
2022/06/01 08:34:06;;;;;;;11.30;2.92;;;;;;;;;;5056131;28;20050;-71
2022/06/01 08:36:35;;;;;;;11.48;2.92;;;;;;;;;;5056378;28;20056;-72
2022/06/01 08:39:02;;;;;;;11.70;2.65;;;;;;;;;;5042535;28;20851;-72
2022/06/01 08:41:32;;;;;;;14.88;3.10;;;;;;;;;;5055831;28;20360;-73
2022/06/01 08:44:21;;;;;;;13.88;2.92;;;;;;;;;;5063341;28;20220;-71
2022/06/01 08:46:49;;;;;;;11.35;2.17;;;;;;;;;;5060921;28;20572;-71
2022/06/01 08:49:21;;;;;;;11.43;2.50;;;;;;;;;;5038518;28;20676;-71
2022/06/01 08:52:00;;;;;;;9.25;2.35;;;;;;;;;;5057838;28;20551;-71
2022/06/01 08:54:29;;;;;;;9.63;2.30;;;;;;;;;;5040933;28;20044;-71
2022/06/01 08:57:08;;;;;;;10.93;2.42;;;;;;;;;;5058971;28;20032;-71
2022/06/01 08:59:49;;;;;;;11.15;2.50;;;;;;;;;;5031505;28;20587;-71
2022/06/01 09:02:35;;;;;;;11.52;2.30;;;;;;;;;;5063252;28;20046;-71
2022/06/01 09:05:16;;;;;;;8.82;2.00;;;;;;;;;;5054647;28;20432;-71
2022/06/01 09:07:46;;;;;;;10.65;2.10;;;;;;;;;;5071047;28;20164;-71
2022/06/01 09:10:45;;;;;;;8.15;1.80;;;;;;;;;;5059506;28;20398;-72
2022/06/01 09:13:23;;;;;;;9.32;2.00;;;;;;;;;;5021901;28;20135;-71
2022/06/01 09:16:03;;;;;;;10.77;1.77;;;;;;;;;;5059950;28;20062;-73
2022/06/01 09:18:53;;;;;;;7.47;1.75;;;;;;;;;;5021112;28;20044;-72
2022/06/01 09:24:11;;;;;;;9.65;2.17;;;;;;;;;;5053169;28;20069;-70
2022/06/01 09:26:59;;;;;;;9.15;1.85;;;;;;;;;;5045212;28;20052;-71
2022/06/01 09:29:29;;;;;;;7.72;1.63;;;;;;;;;;4991614;28;20518;-71
2022/06/01 09:32:02;;;;;;;8.73;1.85;;;;;;;;;;5001008;28;20044;-71
2022/06/01 09:34:47;;;;;;;8.10;1.92;;;;;;;;;;4969098;28;20159;-72
2022/06/01 09:37:33;;;;;;;7.45;1.83;;;;;;;;;;4990290;28;20041;-71
2022/06/01 09:40:03;;;;;;;10.67;1.80;;;;;;;;;;4978204;28;20072;-71
2022/06/01 09:42:35;;;;;;;8.50;1.85;;;;;;;;;;5002237;28;21602;-71
2022/06/01 09:45:04;;;;;;;7.22;1.50;;;;;;;;;;4999734;28;20110;-71
2022/06/01 09:47:50;;;;;;;9.05;2.00;;;;;;;;;;4981301;28;20112;-71
2022/06/01 09:50:38;;;;;;;8.93;1.80;;;;;;;;;;5000446;28;20040;-68
2022/06/01 09:53:24;;;;;;;9.20;2.08;;;;;;;;;;5009493;28;20056;-68
2022/06/01 09:56:02;;;;;;;12.35;1.90;;;;;;;;;;5005438;28;20709;-69
2022/06/01 10:07:38;;;;;;;11.13;2.20;;;;;;;;;;4973533;28;20040;-68
2022/06/01 10:10:07;;;;;;;8.13;1.85;;;;;;;;;;4983709;28;20041;-69
2022/06/01 10:12:35;;;;;;;8.40;1.90;;;;;;;;;;4971422;28;20038;-69
2022/06/01 10:15:03;;;;;;;7.57;1.75;;;;;;;;;;4980962;28;20132;-69
2022/06/01 10:17:36;;;;;;;7.10;1.77;;;;;;;;;;4967605;28;20456;-69
2022/06/01 10:20:21;;;;;;;8.98;1.65;;;;;;;;;;4988292;28;20041;-69
2022/06/01 10:23:17;;;;;;;9.90;2.10;;;;;;;;;;4992214;28;20132;-69
2022/06/01 10:26:03;;;;;;;8.10;1.83;;;;;;;;;;4989389;28;20121;-69
2022/06/01 10:28:41;;;;;;;9.52;1.73;;;;;;;;;;4979389;28;20050;-69
2022/06/01 10:31:28;;;;;;;7.90;1.70;;;;;;;;;;4968932;28;20529;-70
2022/06/01 10:34:17;;;;;;;6.93;1.80;;;;;;;;;;4992958;28;20046;-70
2022/06/01 10:37:02;;;;;;;7.95;1.83;;;;;;;;;;4985425;28;20045;-70
2022/06/01 10:39:48;;;;;;;9.65;1.90;;;;;;;;;;4986415;28;20546;-70
2022/06/01 10:42:21;;;;;;;7.95;2.08;;;;;;;;;;5060011;28;20290;-69
2022/06/01 10:45:07;;;;;;;7.50;1.70;;;;;;;;;;5074422;28;20028;-70
2022/06/01 10:47:43;;;;;;;8.73;2.00;;;;;;;;;;5048126;28;20073;-70
2022/06/01 10:50:18;;;;;;;12.20;1.92;;;;;;;;;;5053073;28;20031;-70
2022/06/01 10:52:55;;;;;;;9.43;1.52;;;;;;;;;;5071896;28;20039;-69
2022/06/01 10:55:28;;;;;;;8.77;2.33;;;;;;;;;;5045123;28;20474;-69
2022/06/01 10:57:57;;;;;;;10.63;2.10;;;;;;;;;;5055838;28;20597;-69
2022/06/01 11:00:27;;;;;;;8.70;2.00;;;;;;;;;;5027886;28;20027;-70
2022/06/01 11:02:59;;;;;;;10.25;2.13;;;;;;;;;;5072161;28;20404;-70
2022/06/01 11:05:37;;;;;;;10.15;1.92;;;;;;;;;;5064733;28;20028;-69
2022/06/01 11:08:10;;;;;;;11.05;2.45;;;;;;;;;;5073466;28;20028;-69
2022/06/01 11:10:49;;;;;;;10.38;2.10;;;;;;;;;;5070054;28;20016;-69
2022/06/01 11:13:34;;;;;;;8.32;1.90;;;;;;;;;;5052734;28;20031;-70
2022/06/01 11:16:16;;;;;;;9.35;2.08;;;;;;;;;;5067853;28;20062;-69
2022/06/01 11:19:03;;;;;;;7.30;1.80;;;;;;;;;;5051626;28;20034;-70
2022/06/01 11:21:42;;;;;;;7.32;1.35;;;;;;;;;;5066504;28;20050;-69
2022/06/01 11:24:27;;;;;;;8.30;1.83;;;;;;;;;;5073101;28;20089;-68
2022/06/01 11:27:07;;;;;;;9.70;1.88;;;;;;;;;;5052874;28;20036;-68
2022/06/01 11:29:53;;;;;;;13.30;2.58;;;;;;;;;;5072225;28;20031;-68
2022/06/01 11:32:26;;;;;;;9.60;2.10;;;;;;;;;;5062478;28;20039;-67
2022/06/01 11:34:56;;;;;;;9.13;1.70;;;;;;;;;;5029024;28;20164;-68
2022/06/01 11:37:39;;;;;;;11.82;2.13;;;;;;;;;;5046778;28;20032;-68
2022/06/01 11:40:09;;;;;;;15.77;2.60;;;;;;;;;;5030472;28;20450;-68
2022/06/01 11:42:44;;;;;;;8.88;2.13;;;;;;;;;;5008443;28;20113;-70
2022/06/01 11:45:18;;;;;;;22.45;2.83;;;;;;;;;;5010629;28;20542;-70
2022/06/01 11:47:54;;;;;;;11.80;2.03;;;;;;;;;;5012535;28;20044;-70
2022/06/01 11:50:49;;;;;;;9.25;1.52;;;;;;;;;;5007157;28;20123;-70
2022/06/01 11:53:22;;;;;;;8.43;2.00;;;;;;;;;;5025089;28;20029;-67
2022/06/01 11:55:53;;;;;;;10.75;1.80;;;;;;;;;;5009383;28;20041;-70
2022/06/01 11:58:21;;;;;;;7.20;1.85;;;;;;;;;;5005014;28;20044;-72
2022/06/01 12:00:57;;;;;;;10.63;1.80;;;;;;;;;;5015890;28;20472;-72
2022/06/01 12:03:37;;;;;;;8.38;2.00;;;;;;;;;;5009723;28;20594;-70
2022/06/01 12:06:11;;;;;;;7.35;1.50;;;;;;;;;;5011709;28;20668;-71
2022/06/01 12:08:43;;;;;;;9.73;1.80;;;;;;;;;;4999406;28;20200;-71
2022/06/01 12:11:13;;;;;;;8.90;2.08;;;;;;;;;;5024470;28;20041;-72
2022/06/01 12:13:46;;;;;;;7.13;1.70;;;;;;;;;;5031341;28;20115;-71
2022/06/01 12:16:23;;;;;;;8.45;2.05;;;;;;;;;;5030480;28;20119;-71
2022/06/01 12:19:14;;;;;;;9.45;2.20;;;;;;;;;;5031367;28;20646;-71
2022/06/01 12:28:30;;;;;;;6.82;1.90;;;;;;;;;;5037144;28;20968;-73
2022/06/01 12:30:50;;;;;;;7.63;1.90;;;;;;;;;;5036227;28;20845;-68
2022/06/01 12:33:20;;;;;;;8.85;2.00;;;;;;;;;;4983958;28;20037;-68
2022/06/01 12:35:56;;;;;;;9.55;1.90;;;;;;;;;;5027434;28;20119;-68
2022/06/01 12:38:24;;;;;;;10.40;2.40;;;;;;;;;;5026769;28;20059;-66
2022/06/01 12:41:02;;;;;;;13.93;2.70;;;;;;;;;;5030748;28;20017;-65
2022/06/01 12:43:29;;;;;;;11.30;2.25;;;;;;;;;;5026355;28;20543;-65
2022/06/01 12:45:56;;;;;;;9.32;2.17;;;;;;;;;;5005697;28;20548;-66
2022/06/01 12:48:24;;;;;;;8.80;2.03;;;;;;;;;;5023578;28;20501;-66
2022/06/01 12:51:01;;;;;;;8.90;2.33;;;;;;;;;;5029783;28;20037;-65
2022/06/01 12:53:53;;;;;;;12.05;2.50;;;;;;;;;;5023279;28;20052;-72
2022/06/01 12:56:27;;;;;;;9.45;2.33;;;;;;;;;;5008103;28;20033;-72
2022/06/01 12:58:55;;;;;;;11.60;2.25;;;;;;;;;;5013880;28;20041;-65
2022/06/01 13:01:32;;;;;;;10.05;2.15;;;;;;;;;;5038750;28;21044;-66
2022/06/01 13:04:00;;;;;;;10.00;2.28;;;;;;;;;;5053850;28;20037;-66
2022/06/01 13:06:31;;;;;;;12.00;2.60;;;;;;;;;;5026263;28;20036;-68
2022/06/01 13:09:18;;;;;;;13.60;2.60;;;;;;;;;;5046970;28;20489;-74
2022/06/01 13:11:47;;;;;;;13.93;2.75;;;;;;;;;;5051148;28;20461;-68
2022/06/01 13:14:35;;;;;;;10.98;2.30;;;;;;;;;;5013901;28;20072;-75
2022/06/01 13:17:19;;;;;;;13.43;2.13;;;;;;;;;;5034535;28;20079;-74
2022/06/01 13:20:08;;;;;;;13.70;2.63;;;;;;;;;;5016389;28;20028;-70
2022/06/01 13:22:38;;;;;;;14.57;2.85;;;;;;;;;;5052868;28;20114;-70
2022/06/01 13:25:08;;;;;;;13.88;2.53;;;;;;;;;;5046898;28;20104;-69
2022/06/01 13:27:37;;;;;;;12.32;2.67;;;;;;;;;;5049829;28;20028;-70
2022/06/01 13:30:05;;;;;;;14.43;2.30;;;;;;;;;;5052618;28;20025;-71
2022/06/01 13:32:35;;;;;;;12.10;2.42;;;;;;;;;;5032860;28;20044;-70
2022/06/01 13:35:17;;;;;;;12.20;2.60;;;;;;;;;;5056792;28;20048;-69
2022/06/01 13:37:46;;;;;;;10.52;2.45;;;;;;;;;;5062674;28;20396;-70
2022/06/01 13:40:41;;;;;;;9.63;2.08;;;;;;;;;;5063520;28;20696;-68
2022/06/01 13:43:17;;;;;;;10.50;1.90;;;;;;;;;;5069463;28;20844;-70
2022/06/01 13:45:50;;;;;;;11.48;2.00;;;;;;;;;;5046614;28;20036;-69
2022/06/01 13:48:36;;;;;;;11.27;2.28;;;;;;;;;;5054512;28;20046;-68
2022/06/01 13:51:04;;;;;;;10.70;2.33;;;;;;;;;;5058956;28;20047;-68
2022/06/01 13:53:40;;;;;;;12.68;2.38;;;;;;;;;;5070683;28;21309;-69
2022/06/01 13:56:09;;;;;;;9.50;2.30;;;;;;;;;;5051951;28;20891;-68
2022/06/01 13:58:41;;;;;;;13.85;2.50;;;;;;;;;;5062123;28;20547;-69
2022/06/01 14:01:28;;;;;;;11.95;2.25;;;;;;;;;;5050737;28;20041;-69
2022/06/01 14:03:56;;;;;;;11.20;2.30;;;;;;;;;;5031237;28;20090;-67
2022/06/01 14:06:39;;;;;;;10.50;2.25;;;;;;;;;;5064684;28;20421;-68
2022/06/01 14:09:11;;;;;;;12.40;2.60;;;;;;;;;;5051058;28;20486;-71
2022/06/01 14:11:38;;;;;;;10.88;2.33;;;;;;;;;;5068245;28;20099;-70
2022/06/01 14:14:17;;;;;;;10.93;2.20;;;;;;;;;;5056576;28;20036;-69
2022/06/01 14:16:48;;;;;;;11.13;1.90;;;;;;;;;;5076921;28;20636;-70
2022/06/01 14:19:18;;;;;;;10.73;1.92;;;;;;;;;;5070349;28;20325;-70
2022/06/01 14:21:48;;;;;;;11.30;2.55;;;;;;;;;;5077521;28;20111;-69
2022/06/01 14:24:15;;;;;;;10.50;2.58;;;;;;;;;;5052660;28;20551;-68
2022/06/01 14:29:32;;;;;;;9.43;2.38;;;;;;;;;;5072892;28;20089;-75
2022/06/01 14:32:00;;;;;;;11.32;2.42;;;;;;;;;;5076211;28;20028;-70
2022/06/01 14:34:28;;;;;;;9.20;2.38;;;;;;;;;;5069181;28;20051;-69
2022/06/01 14:36:58;;;;;;;11.40;2.20;;;;;;;;;;5070903;28;20496;-69
2022/06/01 14:39:26;;;;;;;12.73;2.38;;;;;;;;;;5076155;28;20466;-68
2022/06/01 14:41:54;;;;;;;13.27;2.20;;;;;;;;;;5072533;28;20024;-68
2022/06/01 14:44:24;;;;;;;13.35;2.53;;;;;;;;;;5076495;28;20024;-69
2022/06/01 14:46:53;;;;;;;11.02;2.40;;;;;;;;;;5081158;28;20032;-68
2022/06/01 14:49:21;;;;;;;11.80;2.50;;;;;;;;;;5076194;28;20039;-68
2022/06/01 14:51:56;;;;;;;10.10;2.25;;;;;;;;;;5070214;28;20032;-70
2022/06/01 14:54:24;;;;;;;13.13;2.93;;;;;;;;;;5056954;28;20501;-68
2022/06/01 14:56:51;;;;;;;12.10;2.40;;;;;;;;;;5077048;28;20295;-68
2022/06/01 14:59:28;;;;;;;11.25;2.08;;;;;;;;;;5066078;28;20036;-68
2022/06/01 15:01:58;;;;;;;14.07;2.70;;;;;;;;;;5037853;28;20910;-71
2022/06/01 15:04:30;;;;;;;9.65;2.10;;;;;;;;;;5056268;28;20048;-68
2022/06/01 15:06:58;;;;;;;13.05;2.33;;;;;;;;;;5061780;28;20028;-68
2022/06/01 15:09:26;;;;;;;11.15;1.92;;;;;;;;;;5076023;28;20480;-68
2022/06/01 15:11:54;;;;;;;11.27;2.10;;;;;;;;;;5078455;28;20111;-67
2022/06/01 15:14:32;;;;;;;8.38;2.17;;;;;;;;;;5069113;28;20070;-67
2022/06/01 15:17:08;;;;;;;10.65;2.80;;;;;;;;;;5071377;28;20045;-68
2022/06/01 15:19:44;;;;;;;13.93;2.15;;;;;;;;;;5037340;28;20032;-67
2022/06/01 15:22:10;;;;;;;13.05;2.10;;;;;;;;;;5062490;28;20039;-67
2022/06/01 15:24:40;;;;;;;11.73;2.05;;;;;;;;;;5080798;28;20039;-67
2022/06/01 15:27:08;;;;;;;12.02;2.33;;;;;;;;;;5062276;28;20034;-70
2022/06/01 15:40:37;;;;;;;9.45;2.03;;;;;;;;;;5058037;28;20339;-68
2022/06/01 15:43:10;;;;;;;12.40;2.30;;;;;;;;;;5058555;28;20081;-69
2022/06/01 15:45:47;;;;;;;10.90;2.25;;;;;;;;;;5056092;28;20039;-69
2022/06/01 15:48:15;;;;;;;9.30;2.28;;;;;;;;;;5034901;28;20059;-69